sensor_id;sensor_type;location;lat;lon;timestamp;P1;durP1;ratioP1;P2;durP2;ratioP2
50066;SDS011;35952;52.524;13.340;2022-10-16T00:00:31;3.37;;;3.17;;
50066;SDS011;35952;52.524;13.340;2022-10-16T00:02:57;3.10;;;2.90;;
50066;SDS011;35952;52.524;13.340;2022-10-16T00:05:22;4.13;;;3.83;;
50066;SDS011;35952;52.524;13.340;2022-10-16T00:07:48;3.60;;;3.23;;
50066;SDS011;35952;52.524;13.340;2022-10-16T00:10:14;3.40;;;3.20;;
50066;SDS011;35952;52.524;13.340;2022-10-16T00:12:39;5.10;;;3.80;;
50066;SDS011;35952;52.524;13.340;2022-10-16T00:15:05;3.30;;;3.00;;
50066;SDS011;35952;52.524;13.340;2022-10-16T00:17:31;4.03;;;3.57;;
50066;SDS011;35952;52.524;13.340;2022-10-16T00:19:57;4.20;;;3.80;;
50066;SDS011;35952;52.524;13.340;2022-10-16T00:22:22;3.63;;;3.33;;
50066;SDS011;35952;52.524;13.340;2022-10-16T00:24:48;3.30;;;3.10;;
50066;SDS011;35952;52.524;13.340;2022-10-16T00:27:14;3.20;;;3.00;;
50066;SDS011;35952;52.524;13.340;2022-10-16T00:29:39;4.17;;;3.77;;
50066;SDS011;35952;52.524;13.340;2022-10-16T00:32:05;3.30;;;3.10;;
50066;SDS011;35952;52.524;13.340;2022-10-16T00:34:30;3.33;;;3.13;;
50066;SDS011;35952;52.524;13.340;2022-10-16T00:36:56;3.63;;;3.33;;
50066;SDS011;35952;52.524;13.340;2022-10-16T00:39:21;3.63;;;3.40;;
50066;SDS011;35952;52.524;13.340;2022-10-16T00:41:47;3.37;;;3.17;;
50066;SDS011;35952;52.524;13.340;2022-10-16T00:47:08;3.53;;;3.27;;
50066;SDS011;35952;52.524;13.340;2022-10-16T00:49:36;3.50;;;3.30;;
50066;SDS011;35952;52.524;13.340;2022-10-16T00:52:01;4.00;;;3.20;;
50066;SDS011;35952;52.524;13.340;2022-10-16T00:54:28;3.20;;;3.00;;
50066;SDS011;35952;52.524;13.340;2022-10-16T00:56:56;3.70;;;3.50;;
50066;SDS011;35952;52.524;13.340;2022-10-16T00:59:26;3.47;;;3.10;;
50066;SDS011;35952;52.524;13.340;2022-10-16T01:01:54;3.10;;;2.90;;
50066;SDS011;35952;52.524;13.340;2022-10-16T01:04:21;3.27;;;3.07;;
50066;SDS011;35952;52.524;13.340;2022-10-16T01:09:47;3.27;;;2.97;;
50066;SDS011;35952;52.524;13.340;2022-10-16T01:17:43;2.80;;;2.60;;
50066;SDS011;35952;52.524;13.340;2022-10-16T01:25:44;3.80;;;3.50;;
50066;SDS011;35952;52.524;13.340;2022-10-16T01:28:12;3.30;;;3.10;;
50066;SDS011;35952;52.524;13.340;2022-10-16T01:30:39;3.13;;;2.90;;
50066;SDS011;35952;52.524;13.340;2022-10-16T01:33:17;3.40;;;3.20;;
50066;SDS011;35952;52.524;13.340;2022-10-16T01:35:47;3.13;;;2.93;;
50066;SDS011;35952;52.524;13.340;2022-10-16T01:40:53;3.13;;;2.87;;
50066;SDS011;35952;52.524;13.340;2022-10-16T01:43:40;4.90;;;3.90;;
50066;SDS011;35952;52.524;13.340;2022-10-16T01:46:11;3.53;;;3.10;;
50066;SDS011;35952;52.524;13.340;2022-10-16T01:48:40;3.17;;;2.97;;
50066;SDS011;35952;52.524;13.340;2022-10-16T01:51:07;3.40;;;2.97;;
50066;SDS011;35952;52.524;13.340;2022-10-16T01:53:35;3.00;;;2.80;;
50066;SDS011;35952;52.524;13.340;2022-10-16T01:56:02;2.80;;;2.60;;
50066;SDS011;35952;52.524;13.340;2022-10-16T01:58:32;2.60;;;2.40;;
50066;SDS011;35952;52.524;13.340;2022-10-16T02:01:00;3.27;;;3.07;;
50066;SDS011;35952;52.524;13.340;2022-10-16T02:03:28;2.70;;;2.50;;
50066;SDS011;35952;52.524;13.340;2022-10-16T02:05:54;3.60;;;3.33;;
50066;SDS011;35952;52.524;13.340;2022-10-16T02:08:22;3.03;;;2.83;;
50066;SDS011;35952;52.524;13.340;2022-10-16T02:10:49;3.37;;;3.17;;
50066;SDS011;35952;52.524;13.340;2022-10-16T02:13:20;3.30;;;3.10;;
50066;SDS011;35952;52.524;13.340;2022-10-16T02:15:51;3.40;;;3.10;;
50066;SDS011;35952;52.524;13.340;2022-10-16T02:18:16;3.33;;;3.10;;
50066;SDS011;35952;52.524;13.340;2022-10-16T02:20:48;2.90;;;2.70;;
50066;SDS011;35952;52.524;13.340;2022-10-16T02:23:24;3.00;;;2.80;;
50066;SDS011;35952;52.524;13.340;2022-10-16T02:25:56;2.90;;;2.70;;
50066;SDS011;35952;52.524;13.340;2022-10-16T02:28:26;3.00;;;2.80;;
50066;SDS011;35952;52.524;13.340;2022-10-16T02:30:59;2.60;;;2.40;;
50066;SDS011;35952;52.524;13.340;2022-10-16T02:33:28;2.87;;;2.67;;
50066;SDS011;35952;52.524;13.340;2022-10-16T02:35:56;3.57;;;3.00;;
50066;SDS011;35952;52.524;13.340;2022-10-16T02:38:23;3.57;;;2.70;;
50066;SDS011;35952;52.524;13.340;2022-10-16T02:40:50;2.90;;;2.70;;
50066;SDS011;35952;52.524;13.340;2022-10-16T02:43:15;3.00;;;2.77;;
50066;SDS011;35952;52.524;13.340;2022-10-16T02:45:41;5.37;;;2.50;;
50066;SDS011;35952;52.524;13.340;2022-10-16T02:48:07;3.20;;;3.00;;
50066;SDS011;35952;52.524;13.340;2022-10-16T02:50:32;3.53;;;3.33;;
50066;SDS011;35952;52.524;13.340;2022-10-16T02:52:58;7.97;;;2.80;;
50066;SDS011;35952;52.524;13.340;2022-10-16T02:55:24;2.73;;;2.53;;
50066;SDS011;35952;52.524;13.340;2022-10-16T02:57:49;3.03;;;2.83;;
50066;SDS011;35952;52.524;13.340;2022-10-16T03:00:15;3.13;;;2.90;;
50066;SDS011;35952;52.524;13.340;2022-10-16T03:02:42;2.90;;;2.57;;
50066;SDS011;35952;52.524;13.340;2022-10-16T03:05:08;2.93;;;2.73;;
50066;SDS011;35952;52.524;13.340;2022-10-16T03:07:35;3.43;;;2.97;;
50066;SDS011;35952;52.524;13.340;2022-10-16T03:10:00;3.10;;;2.80;;
50066;SDS011;35952;52.524;13.340;2022-10-16T03:12:29;2.70;;;2.50;;
50066;SDS011;35952;52.524;13.340;2022-10-16T03:14:55;3.60;;;3.20;;
50066;SDS011;35952;52.524;13.340;2022-10-16T03:17:21;3.47;;;3.00;;
50066;SDS011;35952;52.524;13.340;2022-10-16T03:19:47;3.40;;;3.03;;
50066;SDS011;35952;52.524;13.340;2022-10-16T03:22:13;2.90;;;2.70;;
50066;SDS011;35952;52.524;13.340;2022-10-16T03:24:38;3.00;;;2.70;;
50066;SDS011;35952;52.524;13.340;2022-10-16T03:27:04;3.00;;;2.90;;
50066;SDS011;35952;52.524;13.340;2022-10-16T03:29:29;4.90;;;2.50;;
50066;SDS011;35952;52.524;13.340;2022-10-16T03:31:57;3.27;;;3.07;;
50066;SDS011;35952;52.524;13.340;2022-10-16T03:34:22;3.20;;;3.00;;
50066;SDS011;35952;52.524;13.340;2022-10-16T03:36:48;3.53;;;3.23;;
50066;SDS011;35952;52.524;13.340;2022-10-16T03:39:13;3.10;;;2.90;;
50066;SDS011;35952;52.524;13.340;2022-10-16T03:41:39;2.97;;;2.77;;
50066;SDS011;35952;52.524;13.340;2022-10-16T03:44:04;4.30;;;3.27;;
50066;SDS011;35952;52.524;13.340;2022-10-16T03:46:30;3.13;;;2.93;;
50066;SDS011;35952;52.524;13.340;2022-10-16T03:48:55;3.00;;;2.80;;
50066;SDS011;35952;52.524;13.340;2022-10-16T03:51:21;3.20;;;3.00;;
50066;SDS011;35952;52.524;13.340;2022-10-16T03:53:46;3.30;;;2.87;;
50066;SDS011;35952;52.524;13.340;2022-10-16T03:56:12;3.10;;;2.90;;
50066;SDS011;35952;52.524;13.340;2022-10-16T03:58:37;4.93;;;3.23;;
50066;SDS011;35952;52.524;13.340;2022-10-16T04:01:03;3.30;;;3.00;;
50066;SDS011;35952;52.524;13.340;2022-10-16T04:03:28;3.20;;;3.00;;
50066;SDS011;35952;52.524;13.340;2022-10-16T04:05:54;3.73;;;3.43;;
50066;SDS011;35952;52.524;13.340;2022-10-16T04:08:20;7.50;;;3.77;;
50066;SDS011;35952;52.524;13.340;2022-10-16T04:10:45;3.40;;;3.20;;
50066;SDS011;35952;52.524;13.340;2022-10-16T04:13:11;3.50;;;3.30;;
50066;SDS011;35952;52.524;13.340;2022-10-16T04:15:37;3.00;;;2.80;;
50066;SDS011;35952;52.524;13.340;2022-10-16T04:18:03;3.50;;;3.30;;
50066;SDS011;35952;52.524;13.340;2022-10-16T04:20:29;5.10;;;4.57;;
50066;SDS011;35952;52.524;13.340;2022-10-16T04:22:55;5.73;;;5.23;;
50066;SDS011;35952;52.524;13.340;2022-10-16T04:25:20;4.50;;;4.20;;
50066;SDS011;35952;52.524;13.340;2022-10-16T04:27:46;3.00;;;2.77;;
50066;SDS011;35952;52.524;13.340;2022-10-16T04:30:12;3.80;;;3.60;;
50066;SDS011;35952;52.524;13.340;2022-10-16T04:32:37;3.57;;;3.27;;
50066;SDS011;35952;52.524;13.340;2022-10-16T04:35:03;3.37;;;3.17;;
50066;SDS011;35952;52.524;13.340;2022-10-16T04:37:29;4.27;;;3.87;;
50066;SDS011;35952;52.524;13.340;2022-10-16T04:39:54;4.40;;;3.40;;
50066;SDS011;35952;52.524;13.340;2022-10-16T04:42:20;3.73;;;3.43;;
50066;SDS011;35952;52.524;13.340;2022-10-16T04:44:46;4.73;;;4.20;;
50066;SDS011;35952;52.524;13.340;2022-10-16T04:47:11;3.67;;;3.37;;
50066;SDS011;35952;52.524;13.340;2022-10-16T04:49:37;3.70;;;3.40;;
50066;SDS011;35952;52.524;13.340;2022-10-16T04:52:03;4.60;;;4.20;;
50066;SDS011;35952;52.524;13.340;2022-10-16T04:54:29;5.03;;;4.53;;
50066;SDS011;35952;52.524;13.340;2022-10-16T04:56:54;3.70;;;3.40;;
50066;SDS011;35952;52.524;13.340;2022-10-16T04:59:20;3.53;;;3.23;;
50066;SDS011;35952;52.524;13.340;2022-10-16T05:01:46;3.50;;;3.30;;
50066;SDS011;35952;52.524;13.340;2022-10-16T05:04:11;3.20;;;2.97;;
50066;SDS011;35952;52.524;13.340;2022-10-16T05:06:37;4.10;;;3.20;;
50066;SDS011;35952;52.524;13.340;2022-10-16T05:09:04;3.40;;;3.20;;
50066;SDS011;35952;52.524;13.340;2022-10-16T05:11:30;3.63;;;3.33;;
50066;SDS011;35952;52.524;13.340;2022-10-16T05:13:56;3.47;;;3.27;;
50066;SDS011;35952;52.524;13.340;2022-10-16T05:16:21;4.13;;;3.80;;
50066;SDS011;35952;52.524;13.340;2022-10-16T05:18:47;4.07;;;3.77;;
50066;SDS011;35952;52.524;13.340;2022-10-16T05:21:13;4.50;;;4.20;;
50066;SDS011;35952;52.524;13.340;2022-10-16T05:23:38;3.97;;;3.67;;
50066;SDS011;35952;52.524;13.340;2022-10-16T05:26:04;5.80;;;4.27;;
50066;SDS011;35952;52.524;13.340;2022-10-16T05:28:30;5.60;;;3.53;;
50066;SDS011;35952;52.524;13.340;2022-10-16T05:30:56;4.03;;;3.70;;
50066;SDS011;35952;52.524;13.340;2022-10-16T05:33:22;3.43;;;3.23;;
50066;SDS011;35952;52.524;13.340;2022-10-16T05:35:49;4.53;;;4.23;;
50066;SDS011;35952;52.524;13.340;2022-10-16T05:38:15;5.77;;;4.57;;
50066;SDS011;35952;52.524;13.340;2022-10-16T05:40:42;5.07;;;4.60;;
50066;SDS011;35952;52.524;13.340;2022-10-16T05:43:07;4.37;;;4.07;;
50066;SDS011;35952;52.524;13.340;2022-10-16T05:45:33;3.90;;;3.60;;
50066;SDS011;35952;52.524;13.340;2022-10-16T05:47:59;5.07;;;4.57;;
50066;SDS011;35952;52.524;13.340;2022-10-16T05:50:25;4.30;;;3.90;;
50066;SDS011;35952;52.524;13.340;2022-10-16T05:52:51;4.37;;;4.07;;
50066;SDS011;35952;52.524;13.340;2022-10-16T05:55:16;4.10;;;3.40;;
50066;SDS011;35952;52.524;13.340;2022-10-16T05:57:42;3.87;;;3.57;;
50066;SDS011;35952;52.524;13.340;2022-10-16T06:00:07;4.43;;;3.40;;
50066;SDS011;35952;52.524;13.340;2022-10-16T06:02:33;3.80;;;3.50;;
50066;SDS011;35952;52.524;13.340;2022-10-16T06:04:59;4.10;;;3.80;;
50066;SDS011;35952;52.524;13.340;2022-10-16T06:07:24;4.13;;;3.83;;
50066;SDS011;35952;52.524;13.340;2022-10-16T06:09:50;4.53;;;4.00;;
50066;SDS011;35952;52.524;13.340;2022-10-16T06:12:17;5.07;;;4.10;;
50066;SDS011;35952;52.524;13.340;2022-10-16T06:14:42;4.37;;;3.60;;
50066;SDS011;35952;52.524;13.340;2022-10-16T06:17:09;4.63;;;3.77;;
50066;SDS011;35952;52.524;13.340;2022-10-16T06:19:34;4.00;;;3.70;;
50066;SDS011;35952;52.524;13.340;2022-10-16T06:22:00;4.37;;;4.07;;
50066;SDS011;35952;52.524;13.340;2022-10-16T06:24:27;4.73;;;4.33;;
50066;SDS011;35952;52.524;13.340;2022-10-16T06:26:52;3.90;;;3.50;;
50066;SDS011;35952;52.524;13.340;2022-10-16T06:29:18;4.30;;;3.90;;
50066;SDS011;35952;52.524;13.340;2022-10-16T06:31:43;4.47;;;4.10;;
50066;SDS011;35952;52.524;13.340;2022-10-16T06:34:09;4.30;;;4.00;;
50066;SDS011;35952;52.524;13.340;2022-10-16T06:36:36;5.63;;;3.70;;
50066;SDS011;35952;52.524;13.340;2022-10-16T06:39:02;4.20;;;3.90;;
50066;SDS011;35952;52.524;13.340;2022-10-16T06:41:28;4.80;;;4.30;;
50066;SDS011;35952;52.524;13.340;2022-10-16T06:43:54;4.57;;;4.17;;
50066;SDS011;35952;52.524;13.340;2022-10-16T06:46:21;5.27;;;4.80;;
50066;SDS011;35952;52.524;13.340;2022-10-16T06:48:48;3.83;;;3.63;;
50066;SDS011;35952;52.524;13.340;2022-10-16T06:51:15;5.70;;;3.90;;
50066;SDS011;35952;52.524;13.340;2022-10-16T06:53:45;3.70;;;3.40;;
50066;SDS011;35952;52.524;13.340;2022-10-16T06:56:17;4.70;;;4.40;;
50066;SDS011;35952;52.524;13.340;2022-10-16T06:58:45;4.00;;;3.70;;
50066;SDS011;35952;52.524;13.340;2022-10-16T07:01:11;6.50;;;4.33;;
50066;SDS011;35952;52.524;13.340;2022-10-16T07:03:38;4.23;;;3.83;;
50066;SDS011;35952;52.524;13.340;2022-10-16T07:06:05;4.50;;;4.10;;
50066;SDS011;35952;52.524;13.340;2022-10-16T07:08:32;4.23;;;3.87;;
50066;SDS011;35952;52.524;13.340;2022-10-16T07:11:09;4.17;;;3.87;;
50066;SDS011;35952;52.524;13.340;2022-10-16T07:16:09;5.23;;;4.67;;
50066;SDS011;35952;52.524;13.340;2022-10-16T07:18:39;4.03;;;3.73;;
50066;SDS011;35952;52.524;13.340;2022-10-16T07:21:07;6.63;;;6.03;;
50066;SDS011;35952;52.524;13.340;2022-10-16T07:23:35;5.27;;;4.50;;
50066;SDS011;35952;52.524;13.340;2022-10-16T07:26:01;9.63;;;4.50;;
50066;SDS011;35952;52.524;13.340;2022-10-16T07:28:26;4.23;;;3.83;;
50066;SDS011;35952;52.524;13.340;2022-10-16T07:30:52;5.60;;;4.63;;
50066;SDS011;35952;52.524;13.340;2022-10-16T07:33:18;5.87;;;5.23;;
50066;SDS011;35952;52.524;13.340;2022-10-16T07:35:53;3.60;;;3.30;;
50066;SDS011;35952;52.524;13.340;2022-10-16T07:38:20;3.53;;;3.20;;
50066;SDS011;35952;52.524;13.340;2022-10-16T07:40:46;3.53;;;3.07;;
50066;SDS011;35952;52.524;13.340;2022-10-16T07:43:13;4.40;;;4.10;;
50066;SDS011;35952;52.524;13.340;2022-10-16T07:45:46;3.80;;;3.50;;
50066;SDS011;35952;52.524;13.340;2022-10-16T07:48:13;4.23;;;3.77;;
50066;SDS011;35952;52.524;13.340;2022-10-16T07:50:39;6.97;;;6.20;;
50066;SDS011;35952;52.524;13.340;2022-10-16T07:53:04;8.53;;;5.50;;
50066;SDS011;35952;52.524;13.340;2022-10-16T07:55:30;3.33;;;3.10;;
50066;SDS011;35952;52.524;13.340;2022-10-16T07:57:55;3.27;;;3.07;;
50066;SDS011;35952;52.524;13.340;2022-10-16T08:00:21;6.47;;;3.60;;
50066;SDS011;35952;52.524;13.340;2022-10-16T08:02:46;4.20;;;3.90;;
50066;SDS011;35952;52.524;13.340;2022-10-16T08:05:12;4.53;;;4.23;;
50066;SDS011;35952;52.524;13.340;2022-10-16T08:07:37;4.17;;;3.87;;
50066;SDS011;35952;52.524;13.340;2022-10-16T08:10:03;3.80;;;3.60;;
50066;SDS011;35952;52.524;13.340;2022-10-16T08:12:29;4.33;;;3.77;;
50066;SDS011;35952;52.524;13.340;2022-10-16T08:14:54;3.93;;;3.63;;
50066;SDS011;35952;52.524;13.340;2022-10-16T08:17:20;3.90;;;3.50;;
50066;SDS011;35952;52.524;13.340;2022-10-16T08:19:45;3.63;;;3.27;;
50066;SDS011;35952;52.524;13.340;2022-10-16T08:22:12;3.70;;;3.40;;
50066;SDS011;35952;52.524;13.340;2022-10-16T08:24:40;2.97;;;2.73;;
50066;SDS011;35952;52.524;13.340;2022-10-16T08:27:06;3.70;;;3.50;;
50066;SDS011;35952;52.524;13.340;2022-10-16T08:29:33;4.77;;;4.47;;
50066;SDS011;35952;52.524;13.340;2022-10-16T08:31:59;3.80;;;3.50;;
50066;SDS011;35952;52.524;13.340;2022-10-16T08:34:25;3.40;;;3.13;;
50066;SDS011;35952;52.524;13.340;2022-10-16T08:36:52;3.17;;;2.97;;
50066;SDS011;35952;52.524;13.340;2022-10-16T08:39:18;2.97;;;2.77;;
50066;SDS011;35952;52.524;13.340;2022-10-16T08:41:53;3.00;;;2.80;;
50066;SDS011;35952;52.524;13.340;2022-10-16T08:44:34;4.10;;;2.70;;
50066;SDS011;35952;52.524;13.340;2022-10-16T08:47:26;3.63;;;2.87;;
50066;SDS011;35952;52.524;13.340;2022-10-16T08:50:23;2.67;;;2.57;;
50066;SDS011;35952;52.524;13.340;2022-10-16T08:52:51;6.50;;;2.90;;
50066;SDS011;35952;52.524;13.340;2022-10-16T08:57:51;3.57;;;3.27;;
50066;SDS011;35952;52.524;13.340;2022-10-16T09:00:17;8.20;;;7.37;;
50066;SDS011;35952;52.524;13.340;2022-10-16T09:02:59;2.60;;;2.40;;
50066;SDS011;35952;52.524;13.340;2022-10-16T09:05:38;2.73;;;2.50;;
50066;SDS011;35952;52.524;13.340;2022-10-16T09:08:46;2.60;;;2.40;;
50066;SDS011;35952;52.524;13.340;2022-10-16T09:11:22;2.80;;;2.60;;
50066;SDS011;35952;52.524;13.340;2022-10-16T09:13:59;2.90;;;2.60;;
50066;SDS011;35952;52.524;13.340;2022-10-16T09:16:59;3.20;;;3.00;;
50066;SDS011;35952;52.524;13.340;2022-10-16T09:19:51;2.70;;;2.50;;
50066;SDS011;35952;52.524;13.340;2022-10-16T09:22:39;2.40;;;2.30;;
50066;SDS011;35952;52.524;13.340;2022-10-16T09:25:10;9.23;;;7.00;;
50066;SDS011;35952;52.524;13.340;2022-10-16T09:27:38;2.20;;;2.10;;
50066;SDS011;35952;52.524;13.340;2022-10-16T09:30:10;2.70;;;2.50;;
50066;SDS011;35952;52.524;13.340;2022-10-16T09:32:41;2.80;;;2.60;;
50066;SDS011;35952;52.524;13.340;2022-10-16T09:35:13;2.70;;;2.50;;
50066;SDS011;35952;52.524;13.340;2022-10-16T09:37:42;2.53;;;2.20;;
50066;SDS011;35952;52.524;13.340;2022-10-16T09:40:23;3.87;;;2.77;;
50066;SDS011;35952;52.524;13.340;2022-10-16T09:43:36;2.87;;;2.60;;
50066;SDS011;35952;52.524;13.340;2022-10-16T09:48:36;2.50;;;2.30;;
50066;SDS011;35952;52.524;13.340;2022-10-16T09:51:05;3.10;;;2.40;;
50066;SDS011;35952;52.524;13.340;2022-10-16T09:53:44;5.30;;;2.83;;
50066;SDS011;35952;52.524;13.340;2022-10-16T09:56:20;2.70;;;2.50;;
50066;SDS011;35952;52.524;13.340;2022-10-16T09:58:50;2.60;;;2.40;;
50066;SDS011;35952;52.524;13.340;2022-10-16T10:01:21;5.33;;;2.60;;
50066;SDS011;35952;52.524;13.340;2022-10-16T10:04:08;2.73;;;2.53;;
50066;SDS011;35952;52.524;13.340;2022-10-16T10:06:35;2.33;;;2.23;;
50066;SDS011;35952;52.524;13.340;2022-10-16T10:11:44;3.20;;;2.30;;
50066;SDS011;35952;52.524;13.340;2022-10-16T10:14:30;3.47;;;3.17;;
50066;SDS011;35952;52.524;13.340;2022-10-16T10:17:12;3.10;;;2.90;;
50066;SDS011;35952;52.524;13.340;2022-10-16T10:19:49;2.90;;;2.70;;
50066;SDS011;35952;52.524;13.340;2022-10-16T10:22:19;2.60;;;2.50;;
50066;SDS011;35952;52.524;13.340;2022-10-16T10:27:35;2.73;;;2.57;;
50066;SDS011;35952;52.524;13.340;2022-10-16T10:30:08;3.27;;;2.40;;
50066;SDS011;35952;52.524;13.340;2022-10-16T10:36:03;2.20;;;2.00;;
50066;SDS011;35952;52.524;13.340;2022-10-16T10:38:51;2.03;;;1.93;;
50066;SDS011;35952;52.524;13.340;2022-10-16T10:41:36;6.93;;;2.37;;
50066;SDS011;35952;52.524;13.340;2022-10-16T10:44:26;3.07;;;2.87;;
50066;SDS011;35952;52.524;13.340;2022-10-16T10:49:53;3.77;;;2.40;;
50066;SDS011;35952;52.524;13.340;2022-10-16T11:00:31;4.30;;;2.20;;
50066;SDS011;35952;52.524;13.340;2022-10-16T11:05:44;5.53;;;3.50;;
50066;SDS011;35952;52.524;13.340;2022-10-16T11:11:03;4.60;;;2.33;;
50066;SDS011;35952;52.524;13.340;2022-10-16T11:13:35;2.00;;;1.90;;
50066;SDS011;35952;52.524;13.340;2022-10-16T11:16:17;1.83;;;1.73;;
50066;SDS011;35952;52.524;13.340;2022-10-16T11:21:40;2.40;;;2.17;;
50066;SDS011;35952;52.524;13.340;2022-10-16T11:27:00;2.60;;;1.93;;
50066;SDS011;35952;52.524;13.340;2022-10-16T11:29:32;2.03;;;1.83;;
50066;SDS011;35952;52.524;13.340;2022-10-16T11:32:26;2.00;;;1.90;;
50066;SDS011;35952;52.524;13.340;2022-10-16T11:35:00;4.50;;;1.87;;
50066;SDS011;35952;52.524;13.340;2022-10-16T11:37:34;2.40;;;1.50;;
50066;SDS011;35952;52.524;13.340;2022-10-16T11:43:17;3.83;;;2.90;;
50066;SDS011;35952;52.524;13.340;2022-10-16T11:45:57;2.33;;;1.50;;
50066;SDS011;35952;52.524;13.340;2022-10-16T11:48:36;1.83;;;1.73;;
50066;SDS011;35952;52.524;13.340;2022-10-16T11:51:14;4.47;;;2.40;;
50066;SDS011;35952;52.524;13.340;2022-10-16T11:53:53;7.23;;;2.27;;
50066;SDS011;35952;52.524;13.340;2022-10-16T11:56:47;2.60;;;1.87;;
50066;SDS011;35952;52.524;13.340;2022-10-16T11:59:19;2.17;;;1.47;;
50066;SDS011;35952;52.524;13.340;2022-10-16T12:01:59;2.23;;;2.03;;
50066;SDS011;35952;52.524;13.340;2022-10-16T12:04:47;2.00;;;1.60;;
50066;SDS011;35952;52.524;13.340;2022-10-16T12:07:24;2.33;;;2.00;;
50066;SDS011;35952;52.524;13.340;2022-10-16T12:09:57;2.20;;;2.00;;
50066;SDS011;35952;52.524;13.340;2022-10-16T12:15:00;2.10;;;1.70;;
50066;SDS011;35952;52.524;13.340;2022-10-16T12:17:34;2.07;;;1.90;;
50066;SDS011;35952;52.524;13.340;2022-10-16T12:20:18;1.47;;;1.37;;
50066;SDS011;35952;52.524;13.340;2022-10-16T12:25:25;1.93;;;1.73;;
50066;SDS011;35952;52.524;13.340;2022-10-16T12:28:03;2.47;;;2.07;;
50066;SDS011;35952;52.524;13.340;2022-10-16T12:30:52;3.50;;;2.00;;
50066;SDS011;35952;52.524;13.340;2022-10-16T12:33:39;2.00;;;1.90;;
50066;SDS011;35952;52.524;13.340;2022-10-16T12:36:09;1.83;;;1.73;;
50066;SDS011;35952;52.524;13.340;2022-10-16T12:38:46;1.93;;;1.77;;
50066;SDS011;35952;52.524;13.340;2022-10-16T12:41:27;4.43;;;2.13;;
50066;SDS011;35952;52.524;13.340;2022-10-16T12:43:56;2.33;;;1.57;;
50066;SDS011;35952;52.524;13.340;2022-10-16T12:46:24;3.23;;;1.97;;
50066;SDS011;35952;52.524;13.340;2022-10-16T12:51:41;2.67;;;1.70;;
50066;SDS011;35952;52.524;13.340;2022-10-16T12:59:39;3.00;;;1.37;;
50066;SDS011;35952;52.524;13.340;2022-10-16T13:02:41;2.20;;;1.57;;
50066;SDS011;35952;52.524;13.340;2022-10-16T13:05:16;1.23;;;1.13;;
50066;SDS011;35952;52.524;13.340;2022-10-16T13:10:41;1.63;;;1.40;;
50066;SDS011;35952;52.524;13.340;2022-10-16T13:13:32;1.37;;;1.27;;
50066;SDS011;35952;52.524;13.340;2022-10-16T13:16:17;1.67;;;1.57;;
50066;SDS011;35952;52.524;13.340;2022-10-16T13:18:49;5.67;;;1.87;;
50066;SDS011;35952;52.524;13.340;2022-10-16T13:21:33;2.57;;;1.50;;
50066;SDS011;35952;52.524;13.340;2022-10-16T13:27:29;2.30;;;1.50;;
50066;SDS011;35952;52.524;13.340;2022-10-16T13:30:17;4.00;;;3.60;;
50066;SDS011;35952;52.524;13.340;2022-10-16T13:32:48;2.33;;;1.60;;
50066;SDS011;35952;52.524;13.340;2022-10-16T13:35:20;2.70;;;1.50;;
50066;SDS011;35952;52.524;13.340;2022-10-16T13:37:48;1.50;;;1.40;;
50066;SDS011;35952;52.524;13.340;2022-10-16T13:40:19;3.27;;;1.53;;
50066;SDS011;35952;52.524;13.340;2022-10-16T13:42:49;4.30;;;1.87;;
50066;SDS011;35952;52.524;13.340;2022-10-16T13:45:18;2.60;;;1.40;;
50066;SDS011;35952;52.524;13.340;2022-10-16T13:48:05;1.70;;;1.13;;
50066;SDS011;35952;52.524;13.340;2022-10-16T13:50:34;2.50;;;2.00;;
50066;SDS011;35952;52.524;13.340;2022-10-16T13:53:05;1.40;;;1.30;;
50066;SDS011;35952;52.524;13.340;2022-10-16T13:55:32;2.13;;;1.60;;
50066;SDS011;35952;52.524;13.340;2022-10-16T13:58:05;2.80;;;1.50;;
50066;SDS011;35952;52.524;13.340;2022-10-16T14:00:37;1.20;;;1.10;;
50066;SDS011;35952;52.524;13.340;2022-10-16T14:03:04;1.73;;;1.60;;
50066;SDS011;35952;52.524;13.340;2022-10-16T14:05:32;1.73;;;1.30;;
50066;SDS011;35952;52.524;13.340;2022-10-16T14:07:59;3.27;;;1.47;;
50066;SDS011;35952;52.524;13.340;2022-10-16T14:10:26;6.03;;;1.40;;
50066;SDS011;35952;52.524;13.340;2022-10-16T14:12:55;1.53;;;1.43;;
50066;SDS011;35952;52.524;13.340;2022-10-16T14:15:23;1.53;;;1.43;;
50066;SDS011;35952;52.524;13.340;2022-10-16T14:17:49;6.10;;;4.20;;
50066;SDS011;35952;52.524;13.340;2022-10-16T14:20:25;2.60;;;1.87;;
50066;SDS011;35952;52.524;13.340;2022-10-16T14:23:03;1.93;;;1.53;;
50066;SDS011;35952;52.524;13.340;2022-10-16T14:25:43;2.43;;;1.50;;
50066;SDS011;35952;52.524;13.340;2022-10-16T14:28:19;1.90;;;1.60;;
50066;SDS011;35952;52.524;13.340;2022-10-16T14:30:57;1.67;;;1.50;;
50066;SDS011;35952;52.524;13.340;2022-10-16T14:36:23;1.40;;;1.30;;
50066;SDS011;35952;52.524;13.340;2022-10-16T14:38:59;1.80;;;1.70;;
50066;SDS011;35952;52.524;13.340;2022-10-16T14:41:31;1.40;;;1.30;;
50066;SDS011;35952;52.524;13.340;2022-10-16T14:44:05;1.50;;;1.40;;
50066;SDS011;35952;52.524;13.340;2022-10-16T14:46:40;2.33;;;1.63;;
50066;SDS011;35952;52.524;13.340;2022-10-16T14:51:36;1.60;;;1.50;;
50066;SDS011;35952;52.524;13.340;2022-10-16T14:54:03;2.17;;;1.70;;
50066;SDS011;35952;52.524;13.340;2022-10-16T14:56:30;1.77;;;1.50;;
50066;SDS011;35952;52.524;13.340;2022-10-16T14:58:59;2.23;;;2.00;;
50066;SDS011;35952;52.524;13.340;2022-10-16T15:01:25;5.90;;;4.60;;
50066;SDS011;35952;52.524;13.340;2022-10-16T15:03:51;3.33;;;1.97;;
50066;SDS011;35952;52.524;13.340;2022-10-16T15:06:19;6.13;;;2.13;;
50066;SDS011;35952;52.524;13.340;2022-10-16T15:08:45;1.90;;;1.70;;
50066;SDS011;35952;52.524;13.340;2022-10-16T15:11:11;2.10;;;1.90;;
50066;SDS011;35952;52.524;13.340;2022-10-16T15:13:38;1.80;;;1.70;;
50066;SDS011;35952;52.524;13.340;2022-10-16T15:16:04;2.30;;;2.10;;
50066;SDS011;35952;52.524;13.340;2022-10-16T15:18:30;8.10;;;4.77;;
50066;SDS011;35952;52.524;13.340;2022-10-16T15:20:55;2.83;;;2.10;;
50066;SDS011;35952;52.524;13.340;2022-10-16T15:23:21;3.10;;;2.80;;
50066;SDS011;35952;52.524;13.340;2022-10-16T15:25:48;3.33;;;2.37;;
50066;SDS011;35952;52.524;13.340;2022-10-16T15:28:15;2.43;;;1.90;;
50066;SDS011;35952;52.524;13.340;2022-10-16T15:30:42;3.87;;;2.90;;
50066;SDS011;35952;52.524;13.340;2022-10-16T15:33:15;4.87;;;2.23;;
50066;SDS011;35952;52.524;13.340;2022-10-16T15:35:42;2.40;;;2.20;;
50066;SDS011;35952;52.524;13.340;2022-10-16T15:38:12;2.07;;;1.60;;
50066;SDS011;35952;52.524;13.340;2022-10-16T15:40:38;2.10;;;1.90;;
50066;SDS011;35952;52.524;13.340;2022-10-16T15:43:04;1.80;;;1.70;;
50066;SDS011;35952;52.524;13.340;2022-10-16T15:45:30;7.70;;;2.80;;
50066;SDS011;35952;52.524;13.340;2022-10-16T15:47:56;3.03;;;2.10;;
50066;SDS011;35952;52.524;13.340;2022-10-16T15:50:21;2.77;;;2.20;;
50066;SDS011;35952;52.524;13.340;2022-10-16T15:52:47;2.27;;;2.07;;
50066;SDS011;35952;52.524;13.340;2022-10-16T15:55:12;2.80;;;2.27;;
50066;SDS011;35952;52.524;13.340;2022-10-16T15:57:39;2.93;;;2.73;;
50066;SDS011;35952;52.524;13.340;2022-10-16T16:00:10;3.03;;;2.80;;
50066;SDS011;35952;52.524;13.340;2022-10-16T16:02:38;2.70;;;2.50;;
50066;SDS011;35952;52.524;13.340;2022-10-16T16:05:04;3.00;;;2.80;;
50066;SDS011;35952;52.524;13.340;2022-10-16T16:07:33;6.37;;;5.87;;
50066;SDS011;35952;52.524;13.340;2022-10-16T16:10:00;7.10;;;6.40;;
50066;SDS011;35952;52.524;13.340;2022-10-16T16:12:26;5.90;;;5.10;;
50066;SDS011;35952;52.524;13.340;2022-10-16T16:14:51;6.60;;;5.33;;